Time;durP1;ratioP1;P1;durP2;ratioP2;P2;SDS_P1;SDS_P2;PMS_P1;PMS_P2;Temp;Humidity;BMP_temperature;BMP_pressure;BME280_temperature;BME280_humidity;BME280_pressure;Samples;Min_cycle;Max_cycle;Signal;HPM_P1;HPM_P2
2021/06/11 00:00:40;;;;;;;12.40;11.40;;;19.20;67.20;;;;;;4996653;28;20488;-77
2021/06/11 00:03:07;;;;;;;12.23;11.23;;;19.10;67.80;;;;;;4997723;28;20565;-77
2021/06/11 00:05:33;;;;;;;12.47;11.27;;;19.00;67.80;;;;;;4996504;28;20434;-76
2021/06/11 00:08:01;;;;;;;12.40;11.20;;;18.90;69.00;;;;;;4997064;28;20464;-76
2021/06/11 00:10:28;;;;;;;12.87;11.57;;;18.90;69.30;;;;;;4996895;28;20434;-76
2021/06/11 00:12:55;;;;;;;14.77;11.70;;;18.90;69.40;;;;;;4996769;28;20576;-78
2021/06/11 00:15:22;;;;;;;13.60;11.37;;;18.90;69.40;;;;;;4996667;28;20467;-78
2021/06/11 00:17:48;;;;;;;13.30;12.10;;;18.90;70.00;;;;;;5003483;28;20470;-75
2021/06/11 00:20:15;;;;;;;13.30;11.97;;;18.90;69.80;;;;;;5000999;28;20477;-77
2021/06/11 00:22:41;;;;;;;13.47;12.07;;;18.90;70.30;;;;;;5003869;28;20555;-77
2021/06/11 00:25:11;;;;;;;17.30;12.43;;;18.80;71.60;;;;;;5005105;28;20483;-77
2021/06/11 00:27:38;;;;;;;13.60;12.37;;;18.80;71.20;;;;;;5004126;28;20451;-77
2021/06/11 00:30:06;;;;;;;13.27;12.10;;;18.70;71.10;;;;;;5009826;28;20459;-77
2021/06/11 00:32:33;;;;;;;12.63;11.53;;;18.60;72.20;;;;;;5002074;28;20811;-78
2021/06/11 00:34:59;;;;;;;13.87;12.53;;;18.60;72.30;;;;;;4998892;28;20489;-77
2021/06/11 00:37:26;;;;;;;12.90;11.53;;;18.60;72.60;;;;;;5008835;28;20446;-78
2021/06/11 00:39:52;;;;;;;14.43;13.07;;;18.50;73.00;;;;;;5011950;28;20475;-78
2021/06/11 00:42:20;;;;;;;13.30;12.10;;;18.40;73.70;;;;;;5008061;28;20533;-77
2021/06/11 00:44:46;;;;;;;17.43;12.60;;;18.30;74.30;;;;;;5006999;28;20839;-77
2021/06/11 00:47:13;;;;;;;13.33;12.23;;;18.30;74.20;;;;;;5006487;28;20511;-78
2021/06/11 00:49:39;;;;;;;13.20;11.90;;;18.30;74.80;;;;;;5002218;28;20456;-78
2021/06/11 00:52:08;;;;;;;14.30;13.10;;;18.20;75.00;;;;;;4997312;28;20905;-78
2021/06/11 00:54:35;;;;;;;13.67;12.40;;;18.20;75.10;;;;;;4997381;28;20461;-77
2021/06/11 00:57:01;;;;;;;16.23;12.83;;;18.20;77.30;;;;;;4996504;28;20961;-77
2021/06/11 00:59:31;;;;;;;14.80;13.50;;;18.10;79.60;;;;;;4996282;28;20431;-77
2021/06/11 01:01:57;;;;;;;13.67;12.50;;;18.10;80.00;;;;;;4999566;28;20458;-77
2021/06/11 01:04:23;;;;;;;15.57;14.07;;;17.90;81.20;;;;;;4999693;28;20475;-77
2021/06/11 01:06:51;;;;;;;14.80;13.40;;;17.70;83.30;;;;;;5002928;28;20459;-77
2021/06/11 01:09:18;;;;;;;15.27;13.87;;;17.70;83.30;;;;;;5004749;28;20542;-78
2021/06/11 01:11:46;;;;;;;15.07;13.53;;;17.60;83.20;;;;;;5008348;28;20498;-77
2021/06/11 01:14:13;;;;;;;19.63;14.80;;;17.60;84.50;;;;;;5007553;28;20545;-78
2021/06/11 01:16:41;;;;;;;15.90;14.30;;;17.50;85.70;;;;;;4997653;28;20454;-77
2021/06/11 01:19:11;;;;;;;15.00;13.70;;;17.40;86.30;;;;;;4999351;28;20481;-78
2021/06/11 01:21:44;;;;;;;13.73;12.63;;;17.30;87.20;;;;;;4998633;28;20971;-77
2021/06/11 01:24:15;;;;;;;15.67;14.17;;;17.30;88.00;;;;;;4995991;28;20446;-77
2021/06/11 01:26:44;;;;;;;13.43;12.33;;;17.30;88.70;;;;;;4995975;28;20513;-78
2021/06/11 01:29:14;;;;;;;15.20;13.70;;;17.40;89.00;;;;;;4995153;28;21020;-77
2021/06/11 01:31:46;;;;;;;15.40;13.90;;;17.40;88.20;;;;;;4997724;28;20509;-77
2021/06/11 01:34:16;;;;;;;15.40;13.90;;;17.30;88.80;;;;;;5011528;28;20463;-77
2021/06/11 01:36:46;;;;;;;14.43;13.13;;;17.30;88.80;;;;;;5016284;28;20410;-77
2021/06/11 01:39:16;;;;;;;15.53;14.13;;;17.30;88.40;;;;;;4994468;28;20500;-77
2021/06/11 01:41:45;;;;;;;15.37;13.97;;;17.30;88.40;;;;;;4994258;28;20437;-77
2021/06/11 01:44:13;;;;;;;16.10;14.53;;;17.20;89.20;;;;;;4993646;28;20785;-77
2021/06/11 01:46:41;;;;;;;16.37;14.70;;;17.20;89.40;;;;;;4995283;28;20434;-78
2021/06/11 01:49:08;;;;;;;16.87;13.53;;;17.20;89.50;;;;;;4994350;28;20456;-77
2021/06/11 01:51:38;;;;;;;16.40;14.40;;;17.10;90.00;;;;;;4996520;28;20586;-78
2021/06/11 01:54:08;;;;;;;15.53;13.80;;;17.10;90.50;;;;;;4995307;28;20533;-77
2021/06/11 01:56:35;;;;;;;14.87;13.47;;;17.00;90.40;;;;;;4996442;28;20547;-77
2021/06/11 01:59:03;;;;;;;15.67;14.00;;;17.00;91.30;;;;;;5000646;28;20434;-78
2021/06/11 02:01:32;;;;;;;15.40;14.00;;;16.90;91.80;;;;;;5002165;28;20452;-78
2021/06/11 02:04:00;;;;;;;16.67;15.07;;;16.80;92.10;;;;;;5001245;28;20508;-78
2021/06/11 02:06:28;;;;;;;16.67;15.10;;;16.70;92.10;;;;;;4998167;28;20851;-78
2021/06/11 02:08:56;;;;;;;15.80;14.30;;;16.60;93.30;;;;;;4999443;28;20463;-78
2021/06/11 02:11:23;;;;;;;16.77;15.23;;;16.50;93.80;;;;;;4999338;28;20495;-78
2021/06/11 02:13:51;;;;;;;19.10;17.13;;;16.50;94.00;;;;;;5003284;28;20475;-78
2021/06/11 02:16:21;;;;;;;16.77;15.27;;;16.40;94.10;;;;;;5010514;28;20801;-78
2021/06/11 02:18:48;;;;;;;16.80;15.10;;;16.40;94.30;;;;;;5003432;28;20986;-78
2021/06/11 02:21:15;;;;;;;17.37;15.67;;;16.40;94.40;;;;;;4997504;28;20873;-79
2021/06/11 02:23:42;;;;;;;17.73;15.93;;;16.40;93.90;;;;;;4994081;28;20450;-78
2021/06/11 02:26:11;;;;;;;16.97;15.03;;;16.40;93.90;;;;;;4995040;28;20445;-77
2021/06/11 02:28:38;;;;;;;16.50;14.90;;;16.40;93.90;;;;;;4998584;28;20464;-79
2021/06/11 02:31:05;;;;;;;16.33;14.73;;;16.40;93.80;;;;;;5002727;28;20822;-78
2021/06/11 02:33:33;;;;;;;16.43;14.70;;;16.40;93.90;;;;;;4994987;28;20537;-78
2021/06/11 02:36:00;;;;;;;16.53;14.97;;;16.40;94.00;;;;;;5004131;28;20462;-79
2021/06/11 02:38:26;;;;;;;16.37;14.77;;;16.30;93.90;;;;;;4999062;28;20923;-77
2021/06/11 02:40:53;;;;;;;16.80;15.20;;;16.30;93.90;;;;;;4993568;28;20517;-79
2021/06/11 02:43:24;;;;;;;16.50;14.90;;;16.40;93.90;;;;;;4994178;28;20928;-78
2021/06/11 02:45:57;;;;;;;18.20;16.50;;;16.40;93.90;;;;;;4994404;28;20484;-78
2021/06/11 02:48:28;;;;;;;16.17;14.67;;;16.40;93.90;;;;;;4996194;28;20541;-79
2021/06/11 02:51:03;;;;;;;17.17;15.67;;;16.40;93.90;;;;;;4995744;28;20455;-77
2021/06/11 02:53:31;;;;;;;15.37;13.77;;;16.40;93.90;;;;;;4993320;28;20477;-81
2021/06/11 02:56:03;;;;;;;16.47;14.97;;;16.40;93.90;;;;;;4993398;28;20445;-78
2021/06/11 02:58:43;;;;;;;15.90;14.50;;;16.40;93.90;;;;;;4993538;28;20523;-79
2021/06/11 03:01:11;;;;;;;19.50;14.70;;;16.50;93.50;;;;;;4993948;28;20491;-77
2021/06/11 03:03:40;;;;;;;16.30;14.73;;;16.50;93.40;;;;;;4993452;28;20457;-80
2021/06/11 03:06:10;;;;;;;15.30;13.87;;;16.50;93.00;;;;;;4994054;28;20561;-78
2021/06/11 03:08:40;;;;;;;16.63;14.93;;;16.50;93.00;;;;;;4998946;28;20426;-79
2021/06/11 03:11:11;;;;;;;16.07;14.67;;;16.40;92.90;;;;;;4994064;28;20458;-79
2021/06/11 03:13:38;;;;;;;16.60;15.10;;;16.40;93.30;;;;;;4993541;28;20454;-79
2021/06/11 03:16:04;;;;;;;16.47;14.97;;;16.40;93.10;;;;;;4993403;28;20494;-79
2021/06/11 03:18:34;;;;;;;14.80;13.23;;;16.30;93.10;;;;;;4995403;28;20475;-78
2021/06/11 03:21:07;;;;;;;16.47;14.73;;;16.30;93.40;;;;;;4994832;28;20487;-79
2021/06/11 03:23:42;;;;;;;15.93;14.00;;;16.30;93.40;;;;;;4992276;28;20545;-78
2021/06/11 03:26:12;;;;;;;18.33;15.40;;;16.30;93.50;;;;;;4993324;28;20552;-78
2021/06/11 03:28:43;;;;;;;17.17;14.70;;;16.30;93.90;;;;;;4997439;28;20554;-78
2021/06/11 03:31:14;;;;;;;17.90;16.20;;;16.30;93.90;;;;;;5007416;28;20479;-79
2021/06/11 03:33:44;;;;;;;17.93;16.33;;;16.20;94.50;;;;;;5010486;28;20557;-78
2021/06/11 03:36:15;;;;;;;17.33;15.53;;;16.10;94.90;;;;;;5004527;28;20523;-78
2021/06/11 03:38:49;;;;;;;17.50;15.80;;;16.10;95.10;;;;;;4998424;28;20904;-80
2021/06/11 03:41:17;;;;;;;17.90;16.07;;;16.10;95.40;;;;;;4998603;28;20550;-78
2021/06/11 03:43:45;;;;;;;17.83;16.07;;;16.10;95.10;;;;;;4999557;28;20525;-79
2021/06/11 03:46:14;;;;;;;19.60;16.07;;;16.10;95.10;;;;;;4999579;28;20907;-78
2021/06/11 03:48:44;;;;;;;21.20;16.20;;;16.10;95.10;;;;;;4996388;28;20450;-78
2021/06/11 03:51:12;;;;;;;18.53;16.80;;;16.10;95.30;;;;;;4996748;28;20935;-80
2021/06/11 03:53:43;;;;;;;17.47;15.67;;;16.00;95.30;;;;;;4996367;28;20545;-77
2021/06/11 03:56:11;;;;;;;18.60;16.63;;;16.00;95.60;;;;;;4996697;28;20876;-80
2021/06/11 03:58:41;;;;;;;19.40;17.50;;;16.00;95.60;;;;;;4996750;28;20543;-77
2021/06/11 04:01:11;;;;;;;17.40;15.90;;;16.00;95.50;;;;;;4999389;28;20948;-78
2021/06/11 04:03:40;;;;;;;17.57;15.43;;;16.10;95.60;;;;;;5005677;28;20489;-78
2021/06/11 04:06:11;;;;;;;18.30;16.40;;;16.20;95.40;;;;;;5009413;28;20470;-79
2021/06/11 04:08:37;;;;;;;16.57;14.87;;;16.30;94.60;;;;;;5006301;28;20961;-77
2021/06/11 04:11:07;;;;;;;16.40;14.90;;;16.40;93.90;;;;;;4998580;28;20517;-78
2021/06/11 04:13:44;;;;;;;17.00;15.40;;;16.50;93.50;;;;;;4998017;28;20470;-78
2021/06/11 04:16:16;;;;;;;16.87;15.27;;;16.70;92.60;;;;;;4996849;28;20467;-77
2021/06/11 04:18:44;;;;;;;15.40;14.00;;;16.80;91.70;;;;;;4996483;28;20432;-77
2021/06/11 04:21:18;;;;;;;16.10;14.60;;;16.90;91.00;;;;;;4995524;28;20908;-77
2021/06/11 04:23:46;;;;;;;15.20;13.80;;;17.00;90.40;;;;;;4994972;28;21005;-77
2021/06/11 04:26:15;;;;;;;15.13;13.83;;;17.20;89.60;;;;;;4995727;28;20529;-77
2021/06/11 04:28:42;;;;;;;15.60;13.60;;;17.30;87.60;;;;;;4995070;28;20528;-77
2021/06/11 04:31:09;;;;;;;15.13;13.73;;;17.30;85.00;;;;;;4995273;28;20977;-77
2021/06/11 04:33:36;;;;;;;17.30;15.70;;;17.40;85.00;;;;;;4995765;28;20524;-77
2021/06/11 04:36:02;;;;;;;16.03;14.43;;;17.60;84.10;;;;;;4995281;28;20460;-78
2021/06/11 04:38:34;;;;;;;15.50;14.00;;;17.70;83.30;;;;;;4994645;28;20506;-79
2021/06/11 04:41:01;;;;;;;15.57;14.07;;;17.80;82.60;;;;;;4995657;28;20434;-78
2021/06/11 04:43:28;;;;;;;16.10;14.50;;;17.80;80.80;;;;;;4995735;28;20472;-78
2021/06/11 04:45:55;;;;;;;15.33;13.93;;;17.80;81.50;;;;;;4995712;28;20498;-77
2021/06/11 04:48:21;;;;;;;13.73;12.33;;;18.30;80.60;;;;;;4995945;28;20526;-77
2021/06/11 04:50:47;;;;;;;14.00;12.70;;;19.10;75.60;;;;;;4995572;28;20431;-76
2021/06/11 04:53:14;;;;;;;13.63;12.20;;;19.90;67.70;;;;;;4995082;28;21025;-76
2021/06/11 04:55:40;;;;;;;13.13;11.93;;;20.50;63.10;;;;;;4995740;28;20478;-77
2021/06/11 04:58:07;;;;;;;13.00;11.80;;;21.00;59.50;;;;;;5003516;28;20430;-78
2021/06/11 05:00:34;;;;;;;13.40;12.20;;;21.50;56.70;;;;;;4995223;28;20509;-78
2021/06/11 05:03:01;;;;;;;12.37;11.17;;;21.70;55.20;;;;;;4994964;28;20482;-77
2021/06/11 05:05:27;;;;;;;15.10;11.30;;;22.40;52.90;;;;;;4995531;28;20797;-78
2021/06/11 05:07:53;;;;;;;11.00;10.10;;;23.10;50.20;;;;;;4996068;28;20562;-78
2021/06/11 05:10:20;;;;;;;12.13;11.13;;;23.80;47.60;;;;;;4995117;28;20938;-78
2021/06/11 05:12:46;;;;;;;12.47;11.47;;;24.50;44.90;;;;;;4993985;28;20570;-77
2021/06/11 05:15:13;;;;;;;13.80;12.47;;;24.80;43.30;;;;;;4995844;28;20474;-77
2021/06/11 05:17:41;;;;;;;12.23;11.33;;;24.30;44.80;;;;;;4996718;28;20514;-77
2021/06/11 05:20:09;;;;;;;12.90;11.03;;;24.50;43.20;;;;;;4997189;28;20779;-78
2021/06/11 05:22:35;;;;;;;19.23;11.70;;;25.30;42.50;;;;;;4997256;28;20468;-78
2021/06/11 05:25:02;;;;;;;12.53;11.53;;;25.80;40.60;;;;;;4999831;28;20873;-78
2021/06/11 05:27:29;;;;;;;16.00;11.80;;;26.00;39.60;;;;;;5005595;28;20459;-78
2021/06/11 05:29:55;;;;;;;17.60;11.40;;;25.70;40.50;;;;;;5010164;28;20459;-78
2021/06/11 05:32:25;;;;;;;13.63;11.13;;;26.00;40.20;;;;;;5009959;28;20533;-79
2021/06/11 05:34:52;;;;;;;11.53;10.43;;;25.80;40.60;;;;;;5004187;28;20461;-78
2021/06/11 05:37:19;;;;;;;11.77;10.70;;;25.90;40.80;;;;;;5001710;28;20490;-78
2021/06/11 05:39:45;;;;;;;11.67;10.73;;;26.40;39.30;;;;;;5003465;28;20619;-78
2021/06/11 05:42:12;;;;;;;13.20;11.93;;;26.70;38.20;;;;;;5000303;28;20476;-79
2021/06/11 05:44:39;;;;;;;20.93;12.30;;;26.90;37.00;;;;;;4999903;28;20479;-79
2021/06/11 05:47:05;;;;;;;12.43;11.17;;;26.60;38.30;;;;;;4999110;28;20459;-79
2021/06/11 05:49:31;;;;;;;12.50;11.30;;;26.50;38.10;;;;;;4997919;28;20458;-78
2021/06/11 05:51:59;;;;;;;13.57;12.37;;;25.30;41.40;;;;;;5006345;28;20457;-78
2021/06/11 05:54:26;;;;;;;12.93;11.70;;;25.40;41.40;;;;;;4998540;28;20928;-79
2021/06/11 05:56:52;;;;;;;11.90;11.00;;;25.80;40.30;;;;;;4995783;28;20875;-79
2021/06/11 05:59:18;;;;;;;11.93;10.83;;;26.30;38.80;;;;;;4997082;28;20517;-78
2021/06/11 06:01:46;;;;;;;12.43;11.40;;;26.40;38.30;;;;;;4999260;28;20543;-79
2021/06/11 06:04:12;;;;;;;13.47;12.23;;;26.60;37.40;;;;;;5002076;28;20494;-79
2021/06/11 06:06:38;;;;;;;13.43;12.10;;;27.20;36.10;;;;;;5000866;28;20800;-79
2021/06/11 06:09:06;;;;;;;12.97;11.90;;;26.70;37.20;;;;;;5005652;28;20439;-79
2021/06/11 06:11:33;;;;;;;13.10;11.73;;;26.10;39.20;;;;;;5009811;28;20463;-78
2021/06/11 06:13:59;;;;;;;12.63;11.53;;;26.90;37.60;;;;;;5015557;28;20458;-78
2021/06/11 06:16:26;;;;;;;11.57;10.67;;;26.60;36.80;;;;;;5009052;28;20671;-78
2021/06/11 06:18:52;;;;;;;12.27;11.27;;;26.90;36.50;;;;;;4996969;28;20427;-79
2021/06/11 06:21:19;;;;;;;14.47;12.93;;;27.40;34.80;;;;;;4996037;28;20457;-78
2021/06/11 06:23:45;;;;;;;13.60;12.40;;;27.70;35.00;;;;;;4995506;28;20553;-77
2021/06/11 06:26:13;;;;;;;12.13;11.00;;;27.90;34.00;;;;;;4997710;28;20464;-78
2021/06/11 06:28:39;;;;;;;14.17;12.87;;;28.00;34.70;;;;;;4997181;28;20458;-78
2021/06/11 06:31:06;;;;;;;17.87;12.50;;;28.20;33.20;;;;;;4995621;28;20433;-79
2021/06/11 06:33:32;;;;;;;12.47;11.57;;;28.10;33.90;;;;;;4996467;28;20514;-78
2021/06/11 06:35:58;;;;;;;13.87;12.60;;;28.10;32.90;;;;;;5006317;28;20458;-78
2021/06/11 06:38:25;;;;;;;13.87;12.67;;;28.00;33.80;;;;;;5001968;28;20550;-78
2021/06/11 06:41:01;;;;;;;13.20;12.00;;;27.90;34.10;;;;;;4995238;28;20466;-78
2021/06/11 06:43:30;;;;;;;12.10;11.00;;;28.00;33.70;;;;;;4994111;28;20634;-78
2021/06/11 06:45:57;;;;;;;12.30;11.20;;;28.00;34.20;;;;;;4996301;28;20809;-78
2021/06/11 06:48:23;;;;;;;14.13;12.40;;;27.90;34.10;;;;;;5002729;28;20553;-77
2021/06/11 06:50:50;;;;;;;12.80;11.70;;;27.90;33.60;;;;;;4996695;28;20456;-77
2021/06/11 06:53:18;;;;;;;14.03;11.70;;;28.00;32.90;;;;;;4997302;28;20480;-77
2021/06/11 06:55:45;;;;;;;13.13;11.33;;;28.30;32.30;;;;;;4996930;28;20485;-77
2021/06/11 06:58:11;;;;;;;12.63;11.53;;;28.90;31.30;;;;;;4993712;28;20823;-77
2021/06/11 07:00:39;;;;;;;12.50;11.40;;;29.10;30.70;;;;;;4994640;28;20493;-78
2021/06/11 07:03:06;;;;;;;13.93;12.67;;;28.60;31.30;;;;;;4998064;28;20505;-77
2021/06/11 07:05:32;;;;;;;14.47;12.73;;;27.70;33.30;;;;;;4999411;28;20434;-78
2021/06/11 07:07:59;;;;;;;15.93;12.30;;;27.00;34.50;;;;;;4998282;28;21056;-78
2021/06/11 07:10:25;;;;;;;15.20;13.73;;;26.40;36.00;;;;;;4998993;28;20817;-78
2021/06/11 07:12:52;;;;;;;14.80;13.40;;;25.20;39.10;;;;;;4997478;28;21025;-78
2021/06/11 07:15:18;;;;;;;15.17;13.77;;;25.00;40.30;;;;;;4997054;28;20441;-78
2021/06/11 07:17:46;;;;;;;14.83;13.13;;;24.90;39.80;;;;;;4996924;28;20438;-77
2021/06/11 07:20:13;;;;;;;14.33;13.03;;;24.60;40.70;;;;;;4997822;28;20432;-78
2021/06/11 07:22:39;;;;;;;16.50;14.67;;;24.60;41.20;;;;;;5010308;28;20419;-77
2021/06/11 07:25:07;;;;;;;14.80;13.50;;;24.50;41.60;;;;;;5016083;28;20500;-76
2021/06/11 07:27:35;;;;;;;14.10;13.00;;;24.20;42.70;;;;;;5017183;28;20439;-77
2021/06/11 07:30:03;;;;;;;15.60;14.10;;;24.20;42.70;;;;;;5017079;28;20456;-77
2021/06/11 07:32:29;;;;;;;13.97;12.87;;;24.30;42.50;;;;;;5016352;28;20499;-76
2021/06/11 07:34:57;;;;;;;14.83;13.70;;;24.30;41.50;;;;;;5011588;28;20496;-77
2021/06/11 07:37:23;;;;;;;14.83;13.63;;;24.20;42.70;;;;;;4996329;28;20517;-77
2021/06/11 07:39:50;;;;;;;15.40;13.77;;;23.90;42.80;;;;;;5000217;28;20982;-77
2021/06/11 07:42:17;;;;;;;16.20;14.80;;;23.90;43.70;;;;;;5006554;28;20507;-78
2021/06/11 07:44:44;;;;;;;13.63;12.10;;;24.00;42.60;;;;;;4995480;28;20517;-77
2021/06/11 07:47:11;;;;;;;16.40;15.00;;;24.10;42.70;;;;;;4997282;28;20492;-79
2021/06/11 07:49:38;;;;;;;13.17;12.10;;;24.20;42.70;;;;;;4998737;28;20855;-79
2021/06/11 07:52:07;;;;;;;15.60;14.00;;;24.40;42.90;;;;;;5003291;28;20537;-79
2021/06/11 07:54:33;;;;;;;16.43;14.93;;;24.50;43.00;;;;;;5003848;28;20510;-78
2021/06/11 07:57:00;;;;;;;14.80;13.50;;;24.60;41.60;;;;;;5003972;28;20439;-77
2021/06/11 07:59:26;;;;;;;15.43;13.80;;;24.50;41.40;;;;;;5002499;28;20954;-79
2021/06/11 08:01:52;;;;;;;16.63;15.17;;;24.40;41.80;;;;;;4996593;28;20480;-78
2021/06/11 08:04:19;;;;;;;16.00;13.23;;;24.40;41.30;;;;;;4995912;28;20536;-81
2021/06/11 08:06:47;;;;;;;14.90;13.70;;;24.40;41.10;;;;;;4999516;28;20455;-79
2021/06/11 08:09:15;;;;;;;15.30;13.90;;;24.40;41.90;;;;;;5005232;28;20432;-78
2021/06/11 08:11:41;;;;;;;14.33;12.90;;;24.40;41.80;;;;;;5010287;28;20430;-78
2021/06/11 08:14:08;;;;;;;14.10;13.00;;;24.40;42.10;;;;;;4996938;28;137326;-77
2021/06/11 08:16:34;;;;;;;15.20;13.90;;;24.60;41.50;;;;;;5001750;28;20514;-77
2021/06/11 08:19:01;;;;;;;16.20;14.50;;;24.60;41.00;;;;;;5007897;28;20440;-77
2021/06/11 08:21:27;;;;;;;15.23;13.93;;;24.60;40.70;;;;;;5006838;28;20435;-77
2021/06/11 08:23:53;;;;;;;14.33;12.90;;;24.70;40.90;;;;;;5008371;28;20439;-77
2021/06/11 08:26:21;;;;;;;14.67;13.40;;;24.90;40.10;;;;;;5005144;28;20506;-77
2021/06/11 08:28:48;;;;;;;14.20;12.90;;;25.00;39.50;;;;;;4998176;28;20513;-77
2021/06/11 08:31:14;;;;;;;14.40;12.90;;;25.20;38.50;;;;;;4998163;28;20539;-79
2021/06/11 08:33:42;;;;;;;14.23;12.93;;;25.30;38.70;;;;;;4997383;28;20494;-78
2021/06/11 08:36:08;;;;;;;14.40;13.20;;;25.40;39.20;;;;;;5003119;28;20444;-77
2021/06/11 08:38:34;;;;;;;14.50;13.00;;;25.40;37.80;;;;;;4997370;28;20508;-78
2021/06/11 08:41:01;;;;;;;14.03;12.60;;;25.40;37.70;;;;;;4996465;28;20463;-77
2021/06/11 08:43:29;;;;;;;14.77;13.20;;;25.30;38.20;;;;;;4996707;28;20543;-78
2021/06/11 08:45:56;;;;;;;11.17;10.27;;;25.50;36.60;;;;;;5002262;28;20514;-77
2021/06/11 08:48:23;;;;;;;15.37;11.60;;;25.70;34.90;;;;;;5001866;28;20509;-77
2021/06/11 08:50:49;;;;;;;14.03;12.67;;;25.70;36.80;;;;;;5004625;28;20464;-78
2021/06/11 08:53:17;;;;;;;12.37;11.30;;;25.50;37.10;;;;;;5002143;28;20592;-78
2021/06/11 08:55:43;;;;;;;12.77;11.67;;;25.70;36.70;;;;;;4998189;28;20469;-78
2021/06/11 08:58:10;;;;;;;12.30;11.37;;;25.50;36.00;;;;;;4999816;28;20483;-78
2021/06/11 09:00:37;;;;;;;13.00;11.17;;;25.70;36.10;;;;;;4996139;28;20859;-79
2021/06/11 09:03:20;;;;;;;13.20;12.10;;;25.70;37.00;;;;;;4998837;28;20520;-78
2021/06/11 09:05:48;;;;;;;14.10;11.57;;;25.60;37.00;;;;;;4998045;28;20453;-78
2021/06/11 09:08:20;;;;;;;12.60;11.40;;;25.80;36.50;;;;;;4998503;28;20928;-78
2021/06/11 09:10:49;;;;;;;11.50;10.60;;;25.80;36.10;;;;;;5001917;28;20438;-77
2021/06/11 09:13:24;;;;;;;14.07;12.43;;;26.20;35.90;;;;;;4998262;28;20541;-79
2021/06/11 09:15:51;;;;;;;14.30;12.97;;;26.50;34.80;;;;;;4998837;28;20958;-78
2021/06/11 09:18:20;;;;;;;13.43;12.20;;;26.70;34.30;;;;;;4997797;28;20454;-77
2021/06/11 09:20:46;;;;;;;13.00;11.33;;;26.40;34.10;;;;;;4996913;28;20553;-78
2021/06/11 09:23:12;;;;;;;12.37;11.33;;;26.50;34.20;;;;;;4998066;28;20570;-77
2021/06/11 09:25:41;;;;;;;11.77;10.60;;;26.60;34.30;;;;;;4997274;28;20472;-78
2021/06/11 09:28:09;;;;;;;12.33;11.23;;;26.90;34.50;;;;;;4996689;28;20713;-79
2021/06/11 09:30:52;;;;;;;11.67;10.67;;;26.80;34.30;;;;;;5000940;28;20547;-78
2021/06/11 09:33:20;;;;;;;11.90;10.80;;;27.00;32.10;;;;;;4999295;28;20673;-78
2021/06/11 09:35:49;;;;;;;12.37;11.03;;;27.20;32.60;;;;;;5000551;28;20472;-78
2021/06/11 09:38:18;;;;;;;13.23;12.10;;;27.40;32.40;;;;;;5005355;28;20493;-78
2021/06/11 09:40:47;;;;;;;13.20;11.90;;;27.20;32.50;;;;;;5008171;28;20483;-78
2021/06/11 09:43:15;;;;;;;19.13;12.50;;;26.90;33.50;;;;;;5009214;28;20476;-79
2021/06/11 09:45:41;;;;;;;12.23;11.23;;;27.20;33.30;;;;;;5015764;28;20415;-80
2021/06/11 09:48:24;;;;;;;14.90;10.93;;;27.50;32.60;;;;;;5016817;28;20428;-78
2021/06/11 09:50:52;;;;;;;12.73;11.63;;;27.80;31.40;;;;;;5017226;28;20416;-79
2021/06/11 09:53:22;;;;;;;12.97;11.73;;;27.60;30.80;;;;;;5016468;28;20503;-78
2021/06/11 09:55:51;;;;;;;14.53;12.00;;;27.60;30.70;;;;;;5015520;28;20456;-77
2021/06/11 09:58:20;;;;;;;12.07;10.70;;;27.30;31.80;;;;;;5016115;28;20476;-77
2021/06/11 10:00:53;;;;;;;12.40;11.30;;;27.40;31.10;;;;;;5015069;28;20441;-77
2021/06/11 10:03:24;;;;;;;11.80;10.60;;;27.40;31.10;;;;;;5013231;28;21035;-78
2021/06/11 10:05:52;;;;;;;11.40;10.40;;;27.60;30.80;;;;;;5014034;28;20431;-78
2021/06/11 10:08:21;;;;;;;11.57;10.57;;;27.70;30.40;;;;;;5010360;28;20434;-78
2021/06/11 10:10:48;;;;;;;11.53;10.63;;;27.80;29.90;;;;;;5008219;28;20464;-79
2021/06/11 10:13:18;;;;;;;10.73;9.83;;;27.80;29.40;;;;;;5009092;28;20498;-80
2021/06/11 10:15:46;;;;;;;12.03;10.93;;;27.80;29.50;;;;;;5008014;28;20424;-79
2021/06/11 10:18:14;;;;;;;11.37;10.47;;;27.70;29.70;;;;;;5006321;28;20459;-79
2021/06/11 10:20:42;;;;;;;21.43;12.00;;;27.60;29.70;;;;;;5005294;28;20887;-79
2021/06/11 10:23:11;;;;;;;11.30;10.20;;;27.70;29.40;;;;;;5007748;28;20451;-79
2021/06/11 10:25:41;;;;;;;10.50;9.50;;;27.90;28.60;;;;;;5009161;28;20824;-79
2021/06/11 10:28:11;;;;;;;10.53;9.73;;;27.90;28.20;;;;;;4999657;28;20434;-80
2021/06/11 10:30:38;;;;;;;10.03;9.20;;;28.00;28.00;;;;;;4997802;28;20909;-80
2021/06/11 10:33:04;;;;;;;7.27;6.70;;;28.00;27.80;;;;;;4997686;28;20502;-80
2021/06/11 10:35:44;;;;;;;5.70;5.30;;;28.00;25.90;;;;;;4996817;28;20547;-78
2021/06/11 10:38:30;;;;;;;7.07;5.00;;;27.80;22.80;;;;;;5000078;28;20450;-78
2021/06/11 10:40:58;;;;;;;3.47;3.27;;;27.70;21.90;;;;;;5000422;28;20443;-79
2021/06/11 10:43:28;;;;;;;4.63;4.27;;;27.70;20.70;;;;;;5001193;28;20497;-79
2021/06/11 10:45:56;;;;;;;5.60;4.70;;;27.60;21.50;;;;;;5001706;28;20532;-78
2021/06/11 10:48:23;;;;;;;6.90;6.30;;;27.30;22.50;;;;;;5001575;28;20521;-79
2021/06/11 10:50:52;;;;;;;7.07;6.47;;;27.70;24.80;;;;;;5002606;28;20550;-79
2021/06/11 10:53:31;;;;;;;6.90;6.30;;;28.00;24.40;;;;;;5001244;28;20592;-79
2021/06/11 10:56:15;;;;;;;6.37;5.87;;;28.00;23.80;;;;;;5000258;28;20803;-78
2021/06/11 10:58:44;;;;;;;5.90;5.37;;;28.10;23.90;;;;;;5003064;28;20459;-77
2021/06/11 11:01:30;;;;;;;9.33;7.80;;;27.90;23.80;;;;;;5006333;28;20513;-78
2021/06/11 11:04:27;;;;;;;8.53;6.80;;;27.80;24.90;;;;;;5001988;28;20506;-78
2021/06/11 11:06:55;;;;;;;7.73;6.50;;;27.90;25.90;;;;;;5005130;28;20460;-78
2021/06/11 11:09:21;;;;;;;6.93;6.13;;;28.10;25.00;;;;;;5005691;28;20460;-78
2021/06/11 11:11:58;;;;;;;7.80;7.10;;;28.30;24.60;;;;;;5005423;28;21051;-78
2021/06/11 11:14:39;;;;;;;4.63;4.33;;;28.10;25.00;;;;;;5006639;28;20467;-79
2021/06/11 11:17:06;;;;;;;5.40;5.00;;;28.20;22.70;;;;;;5008170;28;20434;-78
2021/06/11 11:19:49;;;;;;;6.37;4.67;;;28.00;23.00;;;;;;5016395;28;20437;-79
2021/06/11 11:22:38;;;;;;;5.67;5.00;;;28.20;22.50;;;;;;5014489;28;20466;-79
2021/06/11 11:25:12;;;;;;;5.37;4.90;;;28.20;22.50;;;;;;5018366;28;20450;-79
2021/06/11 11:27:38;;;;;;;14.10;5.30;;;28.30;23.10;;;;;;5011219;28;20436;-80
2021/06/11 11:30:07;;;;;;;6.67;3.97;;;28.40;21.00;;;;;;5002193;28;20482;-79
2021/06/11 11:32:33;;;;;;;3.60;3.40;;;28.50;21.70;;;;;;5001638;28;20558;-79
2021/06/11 11:35:00;;;;;;;4.30;4.00;;;28.30;21.20;;;;;;5002518;28;20461;-78
2021/06/11 11:37:27;;;;;;;4.60;4.30;;;28.40;21.30;;;;;;5001688;28;20492;-79
2021/06/11 11:39:54;;;;;;;4.37;4.03;;;28.50;21.50;;;;;;5001073;28;20466;-79
2021/06/11 11:42:21;;;;;;;7.33;4.20;;;28.50;21.70;;;;;;5002582;28;20458;-79
2021/06/11 11:44:47;;;;;;;6.20;3.93;;;28.40;21.80;;;;;;5002219;28;20460;-79
2021/06/11 11:47:14;;;;;;;6.60;4.10;;;28.60;21.70;;;;;;5000530;28;20462;-79
2021/06/11 11:49:41;;;;;;;6.07;4.17;;;28.50;21.40;;;;;;5002073;28;20482;-79
2021/06/11 11:52:08;;;;;;;4.50;4.17;;;28.40;21.50;;;;;;4998693;28;20947;-78
2021/06/11 11:54:34;;;;;;;4.53;4.13;;;28.40;21.90;;;;;;4998657;28;20604;-78
2021/06/11 11:57:02;;;;;;;4.90;4.50;;;28.30;21.80;;;;;;4999314;28;20884;-79
2021/06/11 11:59:29;;;;;;;4.97;4.13;;;28.10;21.90;;;;;;4999205;28;20489;-79
2021/06/11 12:01:55;;;;;;;4.77;4.37;;;28.30;21.80;;;;;;4998261;28;20483;-77
2021/06/11 12:04:23;;;;;;;4.40;4.10;;;28.60;21.40;;;;;;5002565;28;20492;-79
2021/06/11 12:06:50;;;;;;;3.40;3.20;;;28.80;21.00;;;;;;4999267;28;20431;-79
2021/06/11 12:09:16;;;;;;;4.33;3.93;;;28.80;20.50;;;;;;4999683;28;20503;-78
2021/06/11 12:11:43;;;;;;;4.30;4.00;;;28.70;20.80;;;;;;5002813;28;20457;-78
2021/06/11 12:14:11;;;;;;;3.83;3.53;;;28.50;21.20;;;;;;5006267;28;20473;-78
2021/06/11 12:19:32;;;;;;;4.03;3.47;;;28.40;20.80;;;;;;5000433;28;20821;-79
2021/06/11 12:21:58;;;;;;;3.90;3.70;;;28.50;21.00;;;;;;5000318;28;20465;-78
2021/06/11 12:24:25;;;;;;;4.63;4.17;;;28.70;20.80;;;;;;5006615;28;20513;-79
2021/06/11 12:26:52;;;;;;;4.50;4.20;;;28.90;21.40;;;;;;5006996;28;20508;-78
2021/06/11 12:29:20;;;;;;;4.10;3.80;;;29.00;21.50;;;;;;5000865;28;20465;-78
2021/06/11 12:31:49;;;;;;;3.57;3.27;;;29.00;20.60;;;;;;5005844;28;20944;-79
2021/06/11 12:34:16;;;;;;;3.30;3.10;;;28.90;19.60;;;;;;5008754;28;20535;-79
2021/06/11 12:36:43;;;;;;;3.07;2.87;;;28.90;19.60;;;;;;5004573;28;20495;-79
2021/06/11 12:39:09;;;;;;;2.87;2.67;;;29.00;20.30;;;;;;5001607;28;20455;-79